Latest Weather Observations for Cerberus

IDV60901

Issued at 10:21 am EST Monday 31 August 2015 (issued every 10 minutes, with the page automatically refreshed every 10 minutes)

About weather observations | Map of Melbourne area stations | Latest observations for Melbourne area | Other Formats
Station Details ID: 086361 Name: CERBERUS Lat: -38.36 Lon: 145.18 Height: 12.69 m
Data from the previous 72 hours. | See also: Recent months at Cerberus
Date/Time
EST
Tmp

°C
App
Tmp
°C
Dew
Point
°C
Rel
Hum
%
Delta-T

°C
Wind Press
QNH
hPa
Press
MSL
hPa
Rain
since
9 am
mm
Dir
 
Spd
km/h
Gust
km/h
Spd
kts
Gust
kts
31/10:00am 10.8 9.5 4.0 63 3.0 CALM 0 9 0 5 1021.1 1021.1 0.0
31/09:30am 10.7 9.3 3.5 61 3.2 CALM 0 0 0 0 1021.1 1021.1 0.0
31/09:00am 10.1 8.8 4.3 67 2.6 CALM 0 0 0 0 1021.1 1021.1 0.0
31/08:30am 9.7 8.6 4.9 72 2.2 CALM 0 0 0 0 1021.1 1021.1 0.0
31/08:00am 8.5 7.5 5.8 83 1.2 CALM 0 0 0 0 1021.0 1021.0 0.0
31/07:30am 7.9 6.8 5.0 82 1.3 CALM 0 0 0 0 1020.9 1020.9 0.0
31/07:00am 7.7 6.6 5.3 85 1.1 CALM 0 0 0 0 1020.8 1020.8 0.0
31/06:30am 7.4 6.3 5.0 85 1.1 CALM 0 0 0 0 1020.5 1020.5 0.0
31/06:00am 7.4 6.3 4.9 84 1.1 CALM 0 0 0 0 1020.6 1020.6 0.0
31/05:30am 7.2 6.1 5.0 86 1.0 CALM 0 0 0 0 1020.4 1020.4 0.0
31/05:00am 6.9 5.8 4.9 87 0.9 CALM 0 0 0 0 1020.5 1020.5 0.0
31/04:30am 7.2 6.0 4.7 84 1.1 CALM 0 0 0 0 1020.5 1020.5 0.0
31/04:00am 7.3 6.1 4.4 82 1.3 CALM 0 0 0 0 1020.5 1020.5 0.0
31/03:30am 7.4 6.2 4.4 81 1.3 CALM 0 0 0 0 1020.5 1020.5 0.0
31/03:00am 7.6 6.3 4.2 79 1.5 CALM 0 0 0 0 1020.5 1020.5 0.0
31/02:30am 7.0 5.7 4.0 81 1.3 CALM 0 0 0 0 1021.0 1021.0 0.0
31/02:00am 6.8 5.4 3.8 81 1.3 CALM 0 0 0 0 1021.5 1021.5 0.0
31/01:30am 7.1 5.7 3.3 77 1.6 CALM 0 0 0 0 1021.8 1021.8 0.0
31/01:00am 7.6 6.2 3.8 77 1.6 CALM 0 0 0 0 1022.0 1022.0 0.0
31/12:30am 7.7 6.3 3.7 76 1.7 CALM 0 0 0 0 1022.1 1022.1 0.0
31/12:00am 7.9 6.1 3.6 74 1.8 WSW 2 11 1 6 1022.3 1022.3 0.0
 
Date/Time
EST
Tmp

°C
App
Tmp
°C
Dew
Point
°C
Rel
Hum
%
Delta-T

°C
Wind Press
QNH
hPa
Press
MSL
hPa
Rain
since
9 am
mm
Dir
 
Spd
km/h
Gust
km/h
Spd
kts
Gust
kts
30/11:30pm 8.7 6.6 4.1 73 2.0 SE 4 9 2 5 1022.6 1022.6 0.0
30/11:00pm 9.0 6.6 4.2 72 2.1 SSE 6 11 3 6 1022.8 1022.8 0.0
30/10:30pm 9.4 6.4 4.2 70 2.3 SE 9 17 5 9 1023.0 1023.0 0.0
30/10:00pm 9.4 7.5 5.0 74 2.0 SE 4 7 2 4 1023.2 1023.2 0.0
30/09:30pm 9.5 7.4 4.1 69 2.4 WSW 4 6 2 3 1023.4 1023.4 0.0
30/09:00pm 9.7 7.2 3.9 67 2.5 WSW 6 7 3 4 1023.3 1023.3 0.0
30/08:30pm 9.6 7.1 4.8 72 2.1 SW 7 13 4 7 1023.4 1023.4 0.0
30/08:00pm 9.6 7.7 5.0 73 2.1 SW 4 6 2 3 1023.3 1023.3 0.0
30/07:30pm 9.6 6.8 5.0 73 2.1 SW 9 15 5 8 1023.4 1023.4 0.0
30/07:00pm 9.5 7.2 5.7 77 1.7 SW 7 9 4 5 1023.4 1023.4 0.0
30/06:30pm 9.7 6.7 5.9 77 1.7 SSE 11 17 6 9 1023.3 1023.3 0.0
30/06:00pm 9.8 7.3 5.0 72 2.2 SW 7 13 4 7 1023.1 1023.1 0.0
30/05:30pm 9.9 6.6 4.5 69 2.4 S 11 17 6 9 1023.0 1023.0 0.0
30/05:00pm 10.2 6.1 4.6 68 2.5 SE 15 20 8 11 1023.1 1023.1 0.0
30/04:30pm 10.2 5.9 5.4 72 2.2 SE 17 22 9 12 1022.9 1022.9 0.0
30/04:00pm 11.2 8.1 5.7 69 2.5 SE 11 19 6 10 1022.9 1022.9 0.0
30/03:30pm 10.6 7.0 4.9 68 2.6 SE 13 19 7 10 1023.2 1023.2 0.0
30/03:00pm 10.9 7.3 4.8 66 2.7 SE 13 20 7 11 1023.3 1023.3 0.0
30/02:30pm 11.1 7.2 5.2 67 2.7 SSE 15 24 8 13 1023.5 1023.5 0.0
30/02:00pm 11.1 6.8 5.2 67 2.7 SSE 17 26 9 14 1023.5 1023.5 0.0
30/01:30pm 11.3 7.0 5.2 66 2.8 SE 17 28 9 15 1023.7 1023.7 0.0
30/01:00pm 11.2 6.5 5.1 66 2.8 SE 19 28 10 15 1023.7 1023.7 0.0
30/12:30pm 11.4 7.2 5.5 67 2.7 SSE 17 28 9 15 1024.0 1024.0 0.0
30/12:00pm 11.7 8.0 6.2 69 2.6 SSE 15 24 8 13 1024.2 1024.2 0.0
30/11:30am 11.8 8.1 6.1 68 2.7 SSE 15 22 8 12 1024.7 1024.7 0.0
30/11:00am 11.5 7.4 6.2 70 2.5 SE 17 24 9 13 1024.9 1024.9 0.0
30/10:30am 11.3 7.4 5.4 67 2.7 SSE 15 22 8 12 1024.9 1024.9 0.0
30/10:00am 11.5 7.7 6.0 69 2.6 S 15 22 8 12 1025.0 1025.0 0.0
30/09:30am 11.4 8.0 5.7 68 2.6 S 13 22 7 12 1025.1 1025.1 0.0
30/09:00am 10.4 7.6 5.0 69 2.4 SSW 9 19 5 10 1025.2 1025.2 0.2
30/08:30am 10.4 6.9 5.6 72 2.2 WSW 13 20 7 11 1025.0 1025.0 0.2
30/08:00am 9.6 8.6 5.6 76 1.8 CALM 0 0 0 0 1024.9 1024.9 0.2
30/07:30am 8.5 7.4 4.9 78 1.6 CALM 0 0 0 0 1024.6 1024.6 0.2
30/07:00am 8.1 6.9 4.7 79 1.5 CALM 0 0 0 0 1024.4 1024.4 0.2
30/06:30am 8.6 7.5 5.0 78 1.6 CALM 0 0 0 0 1024.0 1024.0 0.2
30/06:00am 9.1 8.0 5.3 77 1.7 CALM 0 0 0 0 1023.8 1023.8 0.2
30/05:30am 9.5 8.6 5.9 78 1.7 CALM 0 0 0 0 1023.9 1023.9 0.2
30/05:00am 9.6 8.6 5.6 76 1.8 CALM 0 0 0 0 1023.7 1023.7 0.2
30/04:30am 9.8 8.4 5.6 75 1.9 SSE 2 15 1 8 1023.5 1023.5 0.2
30/04:00am 9.7 8.3 5.7 76 1.8 SSW 2 15 1 8 1023.6 1023.6 0.2
30/03:30am 9.9 9.1 6.3 78 1.7 CALM 0 0 0 0 1023.7 1023.7 0.2
30/03:00am 9.9 8.2 5.9 76 1.8 SSE 4 15 2 8 1023.8 1023.8 0.2
30/02:30am 9.9 7.7 6.1 77 1.8 SE 7 17 4 9 1023.8 1023.8 0.2
30/02:00am 10.0 7.9 6.0 76 1.8 SE 6 19 3 10 1024.0 1024.0 0.2
30/01:30am 10.1 6.8 6.3 77 1.8 SE 13 24 7 13 1024.3 1024.3 0.2
30/01:00am 10.2 6.5 6.4 77 1.8 SE 15 24 8 13 1024.5 1024.5 0.2
30/12:30am 10.2 6.5 6.2 76 1.9 SE 15 24 8 13 1024.7 1024.7 0.2
30/12:00am 10.3 7.8 6.5 77 1.8 SE 9 20 5 11 1024.8 1024.8 0.2
 
Date/Time
EST
Tmp

°C
App
Tmp
°C
Dew
Point
°C
Rel
Hum
%
Delta-T

°C
Wind Press
QNH
hPa
Press
MSL
hPa
Rain
since
9 am
mm
Dir
 
Spd
km/h
Gust
km/h
Spd
kts
Gust
kts
29/11:30pm 9.7 6.1 6.8 82 1.4 SE 15 28 8 15 1025.0 1025.0 0.2
29/11:00pm 10.2 5.6 5.8 74 2.0 SE 19 30 10 16 1025.2 1025.2 0.2
29/10:30pm 10.3 5.9 6.5 77 1.8 SE 19 30 10 16 1025.2 1025.2 0.2
29/10:00pm 10.5 5.8 6.1 74 2.0 SSE 20 33 11 18 1025.3 1025.3 0.2
29/09:30pm 10.4 5.8 6.4 76 1.9 SE 20 33 11 18 1025.2 1025.2 0.2
29/09:00pm 9.7 5.2 7.0 83 1.3 SSE 20 32 11 17 1025.2 1025.2 0.2
29/08:30pm 10.7 6.2 6.1 73 2.1 SSE 19 28 10 15 1025.2 1025.2 0.2
29/08:00pm 10.4 6.5 6.9 79 1.6 SSE 17 30 9 16 1025.1 1025.1 0.2
29/07:30pm 10.7 6.1 6.6 76 1.9 SSE 20 32 11 17 1025.0 1025.0 0.2
29/07:00pm 9.8 5.4 7.4 85 1.1 S 20 37 11 20 1025.1 1025.1 0.2
29/06:30pm 10.7 6.3 7.2 79 1.7 SSE 20 37 11 20 1024.6 1024.6 0.2
29/06:00pm 10.2 5.3 6.7 79 1.6 S 22 41 12 22 1024.4 1024.4 0.2
29/05:30pm 10.1 5.7 7.2 82 1.4 SSE 20 30 11 16 1024.3 1024.3 0.2
29/05:00pm 10.6 6.4 7.5 81 1.5 S 19 30 10 16 1024.1 1024.1 0.2
29/04:30pm 10.5 6.4 7.9 84 1.3 S 19 30 10 16 1024.2 1024.2 0.0
29/04:00pm 11.1 6.2 7.0 76 1.9 S 22 35 12 19 1024.0 1024.0 0.0
29/03:30pm 10.2 5.9 7.8 85 1.2 S 20 39 11 21 1024.2 1024.2 0.0
29/03:00pm 11.0 5.9 7.5 79 1.7 S 24 39 13 21 1024.1 1024.1 0.0
29/02:30pm 11.6 6.3 8.3 80 1.6 S 26 43 14 23 1024.1 1024.1 0.0
29/02:00pm 10.7 4.9 7.9 83 1.3 S 28 43 15 23 1024.2 1024.2 0.0
29/01:30pm 11.1 5.6 7.6 79 1.7 S 26 43 14 23 1024.4 1024.4 0.0
29/01:00pm 10.7 5.2 7.6 81 1.5 S 26 39 14 21 1024.7 1024.7 0.0
29/12:32pm 10.9 5.0 7.4 79 1.7 SSW 28 46 15 25 1025.2 1025.2 0.0
29/12:30pm 10.7 4.3 6.8 77 1.8 SSW 30 46 16 25 1025.2 1025.2 0.0
29/12:28pm 11.2 5.3 7.3 77 1.9 SSW 28 46 15 25 1025.2 1025.2 0.0
29/12:00pm 10.7 5.5 7.2 79 1.7 SSW 24 35 13 19 1025.4 1025.4 0.0
29/11:36am 10.7 4.5 6.1 73 2.1 SSW 28 50 15 27 1025.6 1025.6 0.0
29/11:30am 10.8 4.9 5.6 70 2.4 SW 26 41 14 22 1025.5 1025.5 0.0
29/11:00am 10.6 4.7 6.0 73 2.1 SW 26 43 14 23 1025.6 1025.6 0.0
29/10:30am 10.3 4.4 5.9 74 2.0 SW 26 41 14 22 1025.7 1025.7 0.0
29/10:00am 9.4 3.5 5.9 79 1.6 SW 26 41 14 22 1025.7 1025.7 0.0
29/09:30am 9.2 2.8 5.4 77 1.7 SW 28 43 15 23 1026.0 1026.0 0.0
29/09:00am 9.8 4.2 5.2 73 2.1 SSW 24 39 13 21 1026.1 1026.1 0.2
29/08:30am 9.1 4.2 4.1 71 2.2 SW 19 30 10 16 1026.1 1026.1 0.0
29/08:00am 8.9 4.4 4.3 73 2.0 SW 17 32 9 17 1026.1 1026.1 0.0
29/07:30am 8.0 3.0 4.4 78 1.6 SW 20 33 11 18 1026.0 1026.0 0.0
29/07:00am 8.2 2.6 3.7 73 1.9 SSW 22 35 12 19 1025.6 1025.6 0.0
29/06:30am 8.8 3.5 3.0 67 2.5 SSW 20 37 11 20 1025.4 1025.4 0.0
29/06:00am 8.7 3.8 2.3 64 2.7 SSW 17 30 9 16 1025.5 1025.5 0.0
29/05:30am 8.5 3.5 1.4 61 2.9 SSW 17 26 9 14 1025.5 1025.5 0.0
29/05:00am 8.5 3.1 1.0 59 3.0 SSW 19 26 10 14 1025.4 1025.4 0.0
29/04:30am 8.5 3.9 1.6 62 2.8 S 15 24 8 13 1025.4 1025.4 0.0
29/04:00am 8.0 3.4 1.8 65 2.5 S 15 24 8 13 1025.5 1025.5 0.0
29/03:30am 8.2 4.0 1.4 62 2.8 S 13 24 7 13 1025.7 1025.7 0.0
29/03:00am 8.0 3.7 1.0 61 2.8 S 13 24 7 13 1025.9 1025.9 0.0
29/02:30am 8.0 2.9 0.7 60 2.9 S 17 24 9 13 1025.9 1025.9 0.0
29/02:00am 8.4 4.5 0.9 59 3.0 S 11 22 6 12 1026.0 1026.0 0.0
29/01:30am 8.7 4.2 2.3 64 2.7 S 15 24 8 13 1026.2 1026.2 0.0
29/01:00am 7.9 5.8 3.9 76 1.7 SSE 4 15 2 8 1026.3 1026.3 0.0
29/12:30am 8.4 4.7 4.2 75 1.8 S 13 20 7 11 1026.1 1026.1 0.0
29/12:00am 5.7 4.3 3.5 86 0.9 CALM 0 0 0 0 1026.0 1026.0 0.0
 
Date/Time
EST
Tmp

°C
App
Tmp
°C
Dew
Point
°C
Rel
Hum
%
Delta-T

°C
Wind Press
QNH
hPa
Press
MSL
hPa
Rain
since
9 am
mm
Dir
 
Spd
km/h
Gust
km/h
Spd
kts
Gust
kts
28/11:30pm 7.2 5.8 3.6 78 1.5 CALM 0 0 0 0 1026.1 1026.1 0.0
28/11:00pm 7.9 5.9 4.3 78 1.6 SSE 4 15 2 8 1026.3 1026.3 0.0
28/10:30pm 8.3 6.7 4.3 76 1.7 SSW 2 17 1 9 1026.2 1026.2 0.0
28/10:00pm 6.5 4.8 1.6 71 2.0 CALM 0 11 0 6 1026.2 1026.2 0.0
28/09:30pm 6.4 4.8 2.3 75 1.7 CALM 0 0 0 0 1026.1 1026.1 0.0
28/09:00pm 7.0 4.1 2.7 74 1.8 SW 7 11 4 6 1025.9 1025.9 0.0
28/08:30pm 7.3 4.6 2.8 73 1.9 SW 6 9 3 5 1025.8 1025.8 0.0
28/08:00pm 8.0 4.8 3.3 72 2.0 SW 9 13 5 7 1025.7 1025.7 0.0
28/07:30pm 8.2 5.5 3.9 74 1.9 SSE 7 11 4 6 1025.6 1025.6 0.0
28/07:00pm 8.9 5.9 3.9 71 2.2 SSE 9 17 5 9 1025.5 1025.5 0.0
28/06:30pm 8.8 5.7 3.6 70 2.2 SE 9 17 5 9 1025.2 1025.2 0.0
28/06:00pm 9.3 6.3 4.3 71 2.2 SE 9 15 5 8 1025.0 1025.0 0.0
28/05:30pm 9.9 6.2 4.7 70 2.3 SE 13 22 7 12 1024.8 1024.8 0.0
28/05:00pm 10.1 6.0 4.3 67 2.6 SSE 15 20 8 11 1024.6 1024.6 0.0
28/04:30pm 10.3 6.5 4.0 65 2.8 S 13 20 7 11 1024.5 1024.5 0.0
28/04:00pm 11.0 6.4 3.5 60 3.3 SSE 17 24 9 13 1024.6 1024.6 0.0
28/03:30pm 11.2 6.4 4.4 63 3.1 SSE 19 32 10 17 1024.7 1024.7 0.0
28/03:00pm 11.4 6.2 5.3 66 2.8 SSE 22 33 12 18 1024.6 1024.6 0.0
28/02:30pm 12.5 8.0 6.8 68 2.7 SE 20 32 11 17 1024.6 1024.6 0.0
28/02:00pm 12.5 8.0 7.0 69 2.6 SE 20 30 11 16 1024.5 1024.5 0.0
28/01:30pm 12.2 8.0 7.3 72 2.4 SSE 19 28 10 15 1024.6 1024.6 0.0
28/01:00pm 12.4 8.1 7.1 70 2.5 SE 19 30 10 16 1024.8 1024.8 0.0
28/12:30pm 12.8 8.5 7.9 72 2.4 SE 20 32 11 17 1025.1 1025.1 0.0
28/12:00pm 12.8 8.4 7.5 70 2.6 SSE 20 32 11 17 1025.4 1025.4 0.0
28/11:30am 12.0 8.1 7.1 72 2.4 SE 17 24 9 13 1025.6 1025.6 0.0
28/11:00am 13.1 8.9 7.5 69 2.7 SE 19 28 10 15 1025.8 1025.8 0.0
28/10:30am 11.7 7.2 6.2 69 2.6 SE 19 32 10 17 1025.7 1025.7 0.0

Latest Capital City Observations: Canberra | Sydney | Melbourne | Brisbane | Adelaide | Perth | Hobart | Darwin

Other Formats:

Comma delimited format used in spreadsheet applications
http://www.bom.gov.au/fwo/IDV60901/IDV60901.94898.axf

JavaScript Object Notation format (JSON) in row-major order
http://www.bom.gov.au/fwo/IDV60901/IDV60901.94898.json